sensor_id;sensor_type;location;lat;lon;timestamp;P1;durP1;ratioP1;P2;durP2;ratioP2
64543;SDS011;50936;51.660;5.616;2023-07-31T00:00:14;5.35;;;2.70;;
64543;SDS011;50936;51.660;5.616;2023-07-31T00:02:41;7.70;;;3.03;;
64543;SDS011;50936;51.660;5.616;2023-07-31T00:05:08;6.82;;;3.05;;
64543;SDS011;50936;51.660;5.616;2023-07-31T00:07:36;7.28;;;3.20;;
64543;SDS011;50936;51.660;5.616;2023-07-31T00:10:03;5.38;;;3.08;;
64543;SDS011;50936;51.660;5.616;2023-07-31T00:12:30;7.03;;;3.03;;
64543;SDS011;50936;51.660;5.616;2023-07-31T00:14:57;9.57;;;3.63;;
64543;SDS011;50936;51.660;5.616;2023-07-31T00:17:24;7.65;;;3.22;;
64543;SDS011;50936;51.660;5.616;2023-07-31T00:19:51;8.07;;;3.45;;
64543;SDS011;50936;51.660;5.616;2023-07-31T00:22:18;7.72;;;3.10;;
64543;SDS011;50936;51.660;5.616;2023-07-31T00:24:45;7.82;;;3.15;;
64543;SDS011;50936;51.660;5.616;2023-07-31T00:27:12;6.97;;;3.70;;
64543;SDS011;50936;51.660;5.616;2023-07-31T00:29:38;8.68;;;3.63;;
64543;SDS011;50936;51.660;5.616;2023-07-31T00:32:06;7.72;;;3.50;;
64543;SDS011;50936;51.660;5.616;2023-07-31T00:34:34;8.82;;;3.83;;
64543;SDS011;50936;51.660;5.616;2023-07-31T00:37:02;7.15;;;3.58;;
64543;SDS011;50936;51.660;5.616;2023-07-31T00:39:29;7.32;;;3.45;;
64543;SDS011;50936;51.660;5.616;2023-07-31T00:41:59;9.38;;;3.75;;
64543;SDS011;50936;51.660;5.616;2023-07-31T00:44:26;8.23;;;4.03;;
64543;SDS011;50936;51.660;5.616;2023-07-31T00:46:53;9.13;;;4.00;;
64543;SDS011;50936;51.660;5.616;2023-07-31T00:49:22;6.25;;;3.72;;
64543;SDS011;50936;51.660;5.616;2023-07-31T00:51:49;8.85;;;4.30;;
64543;SDS011;50936;51.660;5.616;2023-07-31T00:54:17;8.93;;;3.25;;
64543;SDS011;50936;51.660;5.616;2023-07-31T00:56:47;9.70;;;3.88;;
64543;SDS011;50936;51.660;5.616;2023-07-31T00:59:15;8.90;;;3.85;;
64543;SDS011;50936;51.660;5.616;2023-07-31T01:01:42;9.45;;;4.00;;
64543;SDS011;50936;51.660;5.616;2023-07-31T01:04:08;6.68;;;3.42;;
64543;SDS011;50936;51.660;5.616;2023-07-31T01:06:47;11.50;;;4.43;;
64543;SDS011;50936;51.660;5.616;2023-07-31T01:12:01;10.20;;;3.85;;
64543;SDS011;50936;51.660;5.616;2023-07-31T01:14:30;9.50;;;4.10;;
64543;SDS011;50936;51.660;5.616;2023-07-31T01:16:57;7.70;;;3.83;;
64543;SDS011;50936;51.660;5.616;2023-07-31T01:19:24;8.30;;;3.55;;
64543;SDS011;50936;51.660;5.616;2023-07-31T01:31:22;8.20;;;3.50;;
64543;SDS011;50936;51.660;5.616;2023-07-31T01:33:53;9.73;;;3.30;;
64543;SDS011;50936;51.660;5.616;2023-07-31T01:38:50;14.75;;;3.85;;
64543;SDS011;50936;51.660;5.616;2023-07-31T01:41:17;8.05;;;3.83;;
64543;SDS011;50936;51.660;5.616;2023-07-31T01:43:45;8.77;;;3.58;;
64543;SDS011;50936;51.660;5.616;2023-07-31T01:46:13;9.60;;;3.38;;
64543;SDS011;50936;51.660;5.616;2023-07-31T01:48:40;9.35;;;3.65;;
64543;SDS011;50936;51.660;5.616;2023-07-31T01:51:07;9.68;;;3.33;;
64543;SDS011;50936;51.660;5.616;2023-07-31T01:53:35;9.75;;;3.45;;
64543;SDS011;50936;51.660;5.616;2023-07-31T01:56:02;10.02;;;4.05;;
64543;SDS011;50936;51.660;5.616;2023-07-31T01:58:29;9.18;;;3.33;;
64543;SDS011;50936;51.660;5.616;2023-07-31T02:00:56;10.15;;;3.60;;
64543;SDS011;50936;51.660;5.616;2023-07-31T02:03:23;7.57;;;3.40;;
64543;SDS011;50936;51.660;5.616;2023-07-31T02:05:53;12.00;;;3.40;;
64543;SDS011;50936;51.660;5.616;2023-07-31T02:08:21;7.82;;;3.47;;
64543;SDS011;50936;51.660;5.616;2023-07-31T02:10:48;11.07;;;4.15;;
64543;SDS011;50936;51.660;5.616;2023-07-31T02:13:15;8.32;;;3.42;;
64543;SDS011;50936;51.660;5.616;2023-07-31T02:15:42;7.45;;;3.20;;
64543;SDS011;50936;51.660;5.616;2023-07-31T02:18:09;9.25;;;3.78;;
64543;SDS011;50936;51.660;5.616;2023-07-31T02:20:36;7.72;;;3.35;;
64543;SDS011;50936;51.660;5.616;2023-07-31T02:23:03;10.20;;;3.70;;
64543;SDS011;50936;51.660;5.616;2023-07-31T02:25:30;11.38;;;3.83;;
64543;SDS011;50936;51.660;5.616;2023-07-31T02:27:57;9.27;;;3.53;;
64543;SDS011;50936;51.660;5.616;2023-07-31T02:30:24;10.32;;;3.60;;
64543;SDS011;50936;51.660;5.616;2023-07-31T02:32:51;8.98;;;3.45;;
64543;SDS011;50936;51.660;5.616;2023-07-31T02:35:18;7.85;;;3.17;;
64543;SDS011;50936;51.660;5.616;2023-07-31T02:37:45;9.90;;;3.95;;
64543;SDS011;50936;51.660;5.616;2023-07-31T02:40:12;8.55;;;3.40;;
64543;SDS011;50936;51.660;5.616;2023-07-31T02:42:39;8.10;;;3.83;;
64543;SDS011;50936;51.660;5.616;2023-07-31T02:45:07;11.05;;;3.30;;
64543;SDS011;50936;51.660;5.616;2023-07-31T02:47:34;11.88;;;3.75;;
64543;SDS011;50936;51.660;5.616;2023-07-31T02:50:02;8.32;;;3.60;;
64543;SDS011;50936;51.660;5.616;2023-07-31T02:52:30;9.00;;;3.05;;
64543;SDS011;50936;51.660;5.616;2023-07-31T02:54:57;9.15;;;3.35;;
64543;SDS011;50936;51.660;5.616;2023-07-31T02:57:24;9.98;;;3.60;;
64543;SDS011;50936;51.660;5.616;2023-07-31T02:59:51;10.35;;;3.47;;
64543;SDS011;50936;51.660;5.616;2023-07-31T03:02:18;8.07;;;3.72;;
64543;SDS011;50936;51.660;5.616;2023-07-31T03:04:46;9.00;;;4.00;;
64543;SDS011;50936;51.660;5.616;2023-07-31T03:07:13;6.60;;;3.22;;
64543;SDS011;50936;51.660;5.616;2023-07-31T03:09:40;8.32;;;3.30;;
64543;SDS011;50936;51.660;5.616;2023-07-31T03:12:07;7.82;;;3.35;;
64543;SDS011;50936;51.660;5.616;2023-07-31T03:14:35;10.77;;;3.88;;
64543;SDS011;50936;51.660;5.616;2023-07-31T03:17:02;7.20;;;3.35;;
64543;SDS011;50936;51.660;5.616;2023-07-31T03:19:30;10.40;;;3.60;;
64543;SDS011;50936;51.660;5.616;2023-07-31T03:21:58;10.18;;;3.60;;
64543;SDS011;50936;51.660;5.616;2023-07-31T03:24:28;9.48;;;3.65;;
64543;SDS011;50936;51.660;5.616;2023-07-31T03:26:55;10.95;;;3.55;;
64543;SDS011;50936;51.660;5.616;2023-07-31T03:29:22;10.43;;;3.88;;
64543;SDS011;50936;51.660;5.616;2023-07-31T03:31:51;11.05;;;3.30;;
64543;SDS011;50936;51.660;5.616;2023-07-31T03:34:18;8.73;;;3.28;;
64543;SDS011;50936;51.660;5.616;2023-07-31T03:36:45;11.23;;;4.00;;
64543;SDS011;50936;51.660;5.616;2023-07-31T03:39:12;9.18;;;3.67;;
64543;SDS011;50936;51.660;5.616;2023-07-31T03:41:39;10.30;;;3.78;;
64543;SDS011;50936;51.660;5.616;2023-07-31T03:44:06;9.65;;;3.55;;
64543;SDS011;50936;51.660;5.616;2023-07-31T03:46:34;12.18;;;4.55;;
64543;SDS011;50936;51.660;5.616;2023-07-31T03:49:03;10.23;;;3.55;;
64543;SDS011;50936;51.660;5.616;2023-07-31T03:51:30;8.52;;;3.85;;
64543;SDS011;50936;51.660;5.616;2023-07-31T03:53:57;9.05;;;3.55;;
64543;SDS011;50936;51.660;5.616;2023-07-31T03:56:23;11.35;;;3.70;;
64543;SDS011;50936;51.660;5.616;2023-07-31T03:58:50;9.82;;;3.22;;
64543;SDS011;50936;51.660;5.616;2023-07-31T04:01:17;9.82;;;3.90;;
64543;SDS011;50936;51.660;5.616;2023-07-31T04:03:47;7.70;;;3.38;;
64543;SDS011;50936;51.660;5.616;2023-07-31T04:06:14;8.77;;;3.40;;
64543;SDS011;50936;51.660;5.616;2023-07-31T04:08:44;7.63;;;3.47;;
64543;SDS011;50936;51.660;5.616;2023-07-31T04:11:11;10.98;;;3.65;;
64543;SDS011;50936;51.660;5.616;2023-07-31T04:13:38;9.90;;;4.00;;
64543;SDS011;50936;51.660;5.616;2023-07-31T04:16:06;9.27;;;3.80;;
64543;SDS011;50936;51.660;5.616;2023-07-31T04:18:32;8.45;;;3.50;;
64543;SDS011;50936;51.660;5.616;2023-07-31T04:20:59;9.70;;;3.40;;
64543;SDS011;50936;51.660;5.616;2023-07-31T04:23:27;10.68;;;3.80;;
64543;SDS011;50936;51.660;5.616;2023-07-31T04:25:55;8.13;;;3.40;;
64543;SDS011;50936;51.660;5.616;2023-07-31T04:28:22;9.00;;;3.67;;
64543;SDS011;50936;51.660;5.616;2023-07-31T04:30:49;7.78;;;3.50;;
64543;SDS011;50936;51.660;5.616;2023-07-31T04:33:16;10.27;;;3.83;;
64543;SDS011;50936;51.660;5.616;2023-07-31T04:35:48;7.57;;;3.47;;
64543;SDS011;50936;51.660;5.616;2023-07-31T04:38:19;8.75;;;3.75;;
64543;SDS011;50936;51.660;5.616;2023-07-31T04:40:47;9.45;;;3.90;;
64543;SDS011;50936;51.660;5.616;2023-07-31T04:43:15;9.50;;;3.50;;
64543;SDS011;50936;51.660;5.616;2023-07-31T04:45:42;10.15;;;3.85;;
64543;SDS011;50936;51.660;5.616;2023-07-31T04:48:14;9.48;;;3.45;;
64543;SDS011;50936;51.660;5.616;2023-07-31T04:50:41;7.45;;;3.10;;
64543;SDS011;50936;51.660;5.616;2023-07-31T04:53:08;7.13;;;3.42;;
64543;SDS011;50936;51.660;5.616;2023-07-31T04:55:35;8.55;;;3.47;;
64543;SDS011;50936;51.660;5.616;2023-07-31T04:58:02;9.95;;;3.80;;
64543;SDS011;50936;51.660;5.616;2023-07-31T05:00:29;8.13;;;3.08;;
64543;SDS011;50936;51.660;5.616;2023-07-31T05:02:56;7.18;;;3.13;;
64543;SDS011;50936;51.660;5.616;2023-07-31T05:05:23;9.02;;;3.38;;
64543;SDS011;50936;51.660;5.616;2023-07-31T05:07:50;8.07;;;3.58;;
64543;SDS011;50936;51.660;5.616;2023-07-31T05:10:17;7.40;;;3.45;;
64543;SDS011;50936;51.660;5.616;2023-07-31T05:12:44;9.07;;;3.13;;
64543;SDS011;50936;51.660;5.616;2023-07-31T05:15:11;10.10;;;3.20;;
64543;SDS011;50936;51.660;5.616;2023-07-31T05:17:38;8.98;;;3.55;;
64543;SDS011;50936;51.660;5.616;2023-07-31T05:20:05;9.05;;;3.67;;
64543;SDS011;50936;51.660;5.616;2023-07-31T05:22:33;10.10;;;3.42;;
64543;SDS011;50936;51.660;5.616;2023-07-31T05:25:00;8.88;;;3.00;;
64543;SDS011;50936;51.660;5.616;2023-07-31T05:27:27;8.15;;;3.28;;
64543;SDS011;50936;51.660;5.616;2023-07-31T05:29:54;9.93;;;3.08;;
64543;SDS011;50936;51.660;5.616;2023-07-31T05:32:21;8.82;;;3.15;;
64543;SDS011;50936;51.660;5.616;2023-07-31T05:34:50;9.30;;;3.33;;
64543;SDS011;50936;51.660;5.616;2023-07-31T05:37:19;12.40;;;3.65;;
64543;SDS011;50936;51.660;5.616;2023-07-31T05:39:46;8.13;;;3.45;;
64543;SDS011;50936;51.660;5.616;2023-07-31T05:42:13;9.00;;;3.80;;
64543;SDS011;50936;51.660;5.616;2023-07-31T05:44:40;8.57;;;3.38;;
64543;SDS011;50936;51.660;5.616;2023-07-31T05:47:07;7.75;;;3.55;;
64543;SDS011;50936;51.660;5.616;2023-07-31T05:49:34;7.63;;;3.00;;
64543;SDS011;50936;51.660;5.616;2023-07-31T05:52:01;8.75;;;3.15;;
64543;SDS011;50936;51.660;5.616;2023-07-31T05:54:28;8.05;;;3.47;;
64543;SDS011;50936;51.660;5.616;2023-07-31T05:56:55;8.07;;;3.20;;
64543;SDS011;50936;51.660;5.616;2023-07-31T05:59:21;8.80;;;2.97;;
64543;SDS011;50936;51.660;5.616;2023-07-31T06:01:48;8.40;;;3.47;;
64543;SDS011;50936;51.660;5.616;2023-07-31T06:04:15;7.25;;;2.80;;
64543;SDS011;50936;51.660;5.616;2023-07-31T06:06:43;8.30;;;3.22;;
64543;SDS011;50936;51.660;5.616;2023-07-31T06:09:09;6.85;;;3.60;;
64543;SDS011;50936;51.660;5.616;2023-07-31T06:11:36;8.90;;;3.35;;
64543;SDS011;50936;51.660;5.616;2023-07-31T06:14:03;9.50;;;3.65;;
64543;SDS011;50936;51.660;5.616;2023-07-31T06:16:30;10.10;;;4.75;;
64543;SDS011;50936;51.660;5.616;2023-07-31T06:18:57;10.52;;;4.07;;
64543;SDS011;50936;51.660;5.616;2023-07-31T06:21:24;9.90;;;4.45;;
64543;SDS011;50936;51.660;5.616;2023-07-31T06:23:51;8.35;;;3.90;;
64543;SDS011;50936;51.660;5.616;2023-07-31T06:26:18;11.07;;;4.40;;
64543;SDS011;50936;51.660;5.616;2023-07-31T06:28:45;10.50;;;4.50;;
64543;SDS011;50936;51.660;5.616;2023-07-31T06:31:12;9.23;;;4.47;;
64543;SDS011;50936;51.660;5.616;2023-07-31T06:33:40;11.82;;;4.50;;
64543;SDS011;50936;51.660;5.616;2023-07-31T06:36:06;8.43;;;4.20;;
64543;SDS011;50936;51.660;5.616;2023-07-31T06:38:34;8.50;;;4.15;;
64543;SDS011;50936;51.660;5.616;2023-07-31T06:41:01;9.32;;;3.83;;
64543;SDS011;50936;51.660;5.616;2023-07-31T06:43:27;9.93;;;4.47;;
64543;SDS011;50936;51.660;5.616;2023-07-31T06:45:55;9.93;;;4.13;;
64543;SDS011;50936;51.660;5.616;2023-07-31T06:48:22;7.07;;;3.53;;
64543;SDS011;50936;51.660;5.616;2023-07-31T06:50:49;14.35;;;4.00;;
64543;SDS011;50936;51.660;5.616;2023-07-31T06:53:16;8.52;;;3.63;;
64543;SDS011;50936;51.660;5.616;2023-07-31T06:55:43;6.70;;;3.03;;
64543;SDS011;50936;51.660;5.616;2023-07-31T06:58:09;9.75;;;3.60;;
64543;SDS011;50936;51.660;5.616;2023-07-31T07:00:36;11.70;;;3.60;;
64543;SDS011;50936;51.660;5.616;2023-07-31T07:03:03;8.60;;;3.53;;
64543;SDS011;50936;51.660;5.616;2023-07-31T07:05:30;7.53;;;3.20;;
64543;SDS011;50936;51.660;5.616;2023-07-31T07:07:57;7.28;;;3.13;;
64543;SDS011;50936;51.660;5.616;2023-07-31T07:10:24;10.68;;;3.22;;
64543;SDS011;50936;51.660;5.616;2023-07-31T07:12:51;7.00;;;3.03;;
64543;SDS011;50936;51.660;5.616;2023-07-31T07:15:21;6.90;;;2.80;;
64543;SDS011;50936;51.660;5.616;2023-07-31T07:17:48;6.38;;;2.80;;
64543;SDS011;50936;51.660;5.616;2023-07-31T07:20:15;13.63;;;3.30;;
64543;SDS011;50936;51.660;5.616;2023-07-31T07:22:42;6.00;;;2.72;;
64543;SDS011;50936;51.660;5.616;2023-07-31T07:25:09;7.60;;;2.88;;
64543;SDS011;50936;51.660;5.616;2023-07-31T07:27:37;7.57;;;3.25;;
64543;SDS011;50936;51.660;5.616;2023-07-31T07:30:04;6.18;;;3.03;;
64543;SDS011;50936;51.660;5.616;2023-07-31T07:32:31;13.45;;;2.67;;
64543;SDS011;50936;51.660;5.616;2023-07-31T07:34:58;6.55;;;2.53;;
64543;SDS011;50936;51.660;5.616;2023-07-31T07:37:25;6.22;;;2.63;;
64543;SDS011;50936;51.660;5.616;2023-07-31T07:39:52;7.15;;;2.78;;
64543;SDS011;50936;51.660;5.616;2023-07-31T07:42:19;6.30;;;2.55;;
64543;SDS011;50936;51.660;5.616;2023-07-31T07:44:46;7.78;;;2.38;;
64543;SDS011;50936;51.660;5.616;2023-07-31T07:47:13;5.75;;;2.10;;
64543;SDS011;50936;51.660;5.616;2023-07-31T07:49:40;4.25;;;1.88;;
64543;SDS011;50936;51.660;5.616;2023-07-31T07:52:07;5.28;;;2.30;;
64543;SDS011;50936;51.660;5.616;2023-07-31T07:54:34;4.70;;;2.30;;
64543;SDS011;50936;51.660;5.616;2023-07-31T07:57:01;5.97;;;2.38;;
64543;SDS011;50936;51.660;5.616;2023-07-31T07:59:28;6.47;;;2.40;;
64543;SDS011;50936;51.660;5.616;2023-07-31T08:01:55;5.85;;;2.20;;
64543;SDS011;50936;51.660;5.616;2023-07-31T08:04:22;5.63;;;2.50;;
64543;SDS011;50936;51.660;5.616;2023-07-31T08:06:48;4.82;;;2.28;;
64543;SDS011;50936;51.660;5.616;2023-07-31T08:09:15;5.10;;;2.13;;
64543;SDS011;50936;51.660;5.616;2023-07-31T08:11:42;5.70;;;2.15;;
64543;SDS011;50936;51.660;5.616;2023-07-31T08:14:09;5.45;;;2.22;;
64543;SDS011;50936;51.660;5.616;2023-07-31T08:16:36;5.38;;;2.30;;
64543;SDS011;50936;51.660;5.616;2023-07-31T08:19:04;5.25;;;2.10;;
64543;SDS011;50936;51.660;5.616;2023-07-31T08:21:31;4.22;;;2.10;;
64543;SDS011;50936;51.660;5.616;2023-07-31T08:23:58;5.85;;;2.13;;
64543;SDS011;50936;51.660;5.616;2023-07-31T08:26:25;4.47;;;2.00;;
64543;SDS011;50936;51.660;5.616;2023-07-31T08:28:53;6.07;;;2.35;;
64543;SDS011;50936;51.660;5.616;2023-07-31T08:31:19;4.43;;;1.83;;
64543;SDS011;50936;51.660;5.616;2023-07-31T08:33:46;4.25;;;2.22;;
64543;SDS011;50936;51.660;5.616;2023-07-31T08:36:13;4.63;;;2.20;;
64543;SDS011;50936;51.660;5.616;2023-07-31T08:38:40;5.60;;;2.33;;
64543;SDS011;50936;51.660;5.616;2023-07-31T08:41:07;6.20;;;2.42;;
64543;SDS011;50936;51.660;5.616;2023-07-31T08:43:34;5.93;;;2.42;;
64543;SDS011;50936;51.660;5.616;2023-07-31T08:46:04;6.13;;;2.45;;
64543;SDS011;50936;51.660;5.616;2023-07-31T08:48:32;4.70;;;1.83;;
64543;SDS011;50936;51.660;5.616;2023-07-31T08:51:00;4.70;;;2.10;;
64543;SDS011;50936;51.660;5.616;2023-07-31T08:53:27;4.85;;;2.03;;
64543;SDS011;50936;51.660;5.616;2023-07-31T08:55:54;5.65;;;2.15;;
64543;SDS011;50936;51.660;5.616;2023-07-31T08:58:25;3.47;;;1.92;;
64543;SDS011;50936;51.660;5.616;2023-07-31T09:00:58;5.05;;;2.20;;
64543;SDS011;50936;51.660;5.616;2023-07-31T09:03:33;4.40;;;2.00;;
64543;SDS011;50936;51.660;5.616;2023-07-31T09:06:02;4.18;;;2.40;;
64543;SDS011;50936;51.660;5.616;2023-07-31T09:08:32;3.83;;;1.98;;
64543;SDS011;50936;51.660;5.616;2023-07-31T09:11:00;4.45;;;1.98;;
64543;SDS011;50936;51.660;5.616;2023-07-31T09:13:31;5.18;;;2.25;;
64543;SDS011;50936;51.660;5.616;2023-07-31T09:15:59;4.70;;;2.10;;
64543;SDS011;50936;51.660;5.616;2023-07-31T09:18:26;3.40;;;1.65;;
64543;SDS011;50936;51.660;5.616;2023-07-31T09:21:03;4.72;;;2.20;;
64543;SDS011;50936;51.660;5.616;2023-07-31T09:26:31;5.72;;;2.05;;
64543;SDS011;50936;51.660;5.616;2023-07-31T09:29:04;4.63;;;2.08;;
64543;SDS011;50936;51.660;5.616;2023-07-31T09:31:38;4.95;;;2.17;;
64543;SDS011;50936;51.660;5.616;2023-07-31T09:34:08;5.50;;;2.17;;
64543;SDS011;50936;51.660;5.616;2023-07-31T09:36:54;4.95;;;2.40;;
64543;SDS011;50936;51.660;5.616;2023-07-31T09:39:21;4.72;;;2.35;;
64543;SDS011;50936;51.660;5.616;2023-07-31T09:41:53;4.47;;;2.10;;
64543;SDS011;50936;51.660;5.616;2023-07-31T09:44:22;4.63;;;2.28;;
64543;SDS011;50936;51.660;5.616;2023-07-31T09:47:06;4.47;;;2.30;;
64543;SDS011;50936;51.660;5.616;2023-07-31T09:49:33;4.30;;;2.25;;
64543;SDS011;50936;51.660;5.616;2023-07-31T09:52:00;5.32;;;2.47;;
64543;SDS011;50936;51.660;5.616;2023-07-31T09:54:27;5.65;;;2.50;;
64543;SDS011;50936;51.660;5.616;2023-07-31T09:56:54;3.83;;;2.25;;
64543;SDS011;50936;51.660;5.616;2023-07-31T09:59:25;5.30;;;2.20;;
64543;SDS011;50936;51.660;5.616;2023-07-31T10:01:52;4.78;;;2.40;;
64543;SDS011;50936;51.660;5.616;2023-07-31T10:04:22;4.90;;;2.33;;
64543;SDS011;50936;51.660;5.616;2023-07-31T10:09:22;4.78;;;2.10;;
64543;SDS011;50936;51.660;5.616;2023-07-31T10:11:55;5.78;;;2.38;;
64543;SDS011;50936;51.660;5.616;2023-07-31T10:14:26;5.75;;;2.40;;
64543;SDS011;50936;51.660;5.616;2023-07-31T10:16:56;6.40;;;2.17;;
64543;SDS011;50936;51.660;5.616;2023-07-31T10:19:24;6.97;;;2.50;;
64543;SDS011;50936;51.660;5.616;2023-07-31T10:21:54;7.20;;;2.53;;
64543;SDS011;50936;51.660;5.616;2023-07-31T10:24:23;6.43;;;2.70;;
64543;SDS011;50936;51.660;5.616;2023-07-31T10:26:51;6.80;;;3.33;;
64543;SDS011;50936;51.660;5.616;2023-07-31T10:29:19;4.95;;;2.88;;
64543;SDS011;50936;51.660;5.616;2023-07-31T10:31:48;6.97;;;3.10;;
64543;SDS011;50936;51.660;5.616;2023-07-31T10:34:18;7.28;;;3.28;;
64543;SDS011;50936;51.660;5.616;2023-07-31T10:36:45;8.13;;;3.50;;
64543;SDS011;50936;51.660;5.616;2023-07-31T10:42:10;5.72;;;3.28;;
64543;SDS011;50936;51.660;5.616;2023-07-31T10:44:44;7.03;;;3.20;;
64543;SDS011;50936;51.660;5.616;2023-07-31T10:47:16;6.47;;;2.95;;
64543;SDS011;50936;51.660;5.616;2023-07-31T10:49:44;5.53;;;3.05;;
64543;SDS011;50936;51.660;5.616;2023-07-31T10:52:13;6.03;;;3.10;;
64543;SDS011;50936;51.660;5.616;2023-07-31T10:54:45;5.93;;;3.10;;
64543;SDS011;50936;51.660;5.616;2023-07-31T10:57:19;5.97;;;2.88;;
64543;SDS011;50936;51.660;5.616;2023-07-31T10:59:50;7.55;;;3.10;;
64543;SDS011;50936;51.660;5.616;2023-07-31T11:02:26;7.40;;;3.25;;
64543;SDS011;50936;51.660;5.616;2023-07-31T11:05:06;5.82;;;3.03;;
64543;SDS011;50936;51.660;5.616;2023-07-31T11:07:48;6.50;;;3.03;;
64543;SDS011;50936;51.660;5.616;2023-07-31T11:10:16;7.65;;;3.17;;
64543;SDS011;50936;51.660;5.616;2023-07-31T11:12:45;8.07;;;3.08;;
64543;SDS011;50936;51.660;5.616;2023-07-31T11:15:13;5.75;;;2.80;;
64543;SDS011;50936;51.660;5.616;2023-07-31T11:17:40;6.72;;;2.90;;
64543;SDS011;50936;51.660;5.616;2023-07-31T11:20:08;4.53;;;2.72;;
64543;SDS011;50936;51.660;5.616;2023-07-31T11:22:35;6.00;;;3.25;;
64543;SDS011;50936;51.660;5.616;2023-07-31T11:25:03;5.75;;;2.80;;
64543;SDS011;50936;51.660;5.616;2023-07-31T11:27:30;7.75;;;3.10;;
64543;SDS011;50936;51.660;5.616;2023-07-31T11:30:01;4.85;;;2.67;;
64543;SDS011;50936;51.660;5.616;2023-07-31T11:32:29;5.28;;;2.97;;
64543;SDS011;50936;51.660;5.616;2023-07-31T11:34:56;5.95;;;2.72;;
64543;SDS011;50936;51.660;5.616;2023-07-31T11:37:23;5.72;;;2.35;;
64543;SDS011;50936;51.660;5.616;2023-07-31T11:40:00;5.35;;;2.60;;
64543;SDS011;50936;51.660;5.616;2023-07-31T11:42:27;6.65;;;2.80;;
64543;SDS011;50936;51.660;5.616;2023-07-31T11:44:54;5.38;;;2.72;;
64543;SDS011;50936;51.660;5.616;2023-07-31T11:47:21;4.82;;;2.70;;
64543;SDS011;50936;51.660;5.616;2023-07-31T11:49:48;4.93;;;3.05;;
64543;SDS011;50936;51.660;5.616;2023-07-31T11:52:15;6.00;;;2.78;;
64543;SDS011;50936;51.660;5.616;2023-07-31T11:54:46;5.25;;;2.70;;
64543;SDS011;50936;51.660;5.616;2023-07-31T11:57:14;5.05;;;2.78;;
64543;SDS011;50936;51.660;5.616;2023-07-31T11:59:42;7.32;;;2.75;;
64543;SDS011;50936;51.660;5.616;2023-07-31T12:02:09;4.90;;;2.80;;
64543;SDS011;50936;51.660;5.616;2023-07-31T12:04:37;10.65;;;2.65;;
64543;SDS011;50936;51.660;5.616;2023-07-31T12:07:05;7.13;;;2.70;;
64543;SDS011;50936;51.660;5.616;2023-07-31T12:09:32;6.05;;;2.72;;
64543;SDS011;50936;51.660;5.616;2023-07-31T12:11:59;6.93;;;2.88;;
64543;SDS011;50936;51.660;5.616;2023-07-31T12:14:27;5.03;;;2.83;;
64543;SDS011;50936;51.660;5.616;2023-07-31T12:16:58;5.35;;;2.60;;
64543;SDS011;50936;51.660;5.616;2023-07-31T12:19:30;5.13;;;2.78;;
64543;SDS011;50936;51.660;5.616;2023-07-31T12:22:01;4.82;;;2.38;;
64543;SDS011;50936;51.660;5.616;2023-07-31T12:24:28;4.70;;;2.60;;
64543;SDS011;50936;51.660;5.616;2023-07-31T12:26:55;4.95;;;2.80;;
64543;SDS011;50936;51.660;5.616;2023-07-31T12:29:22;5.45;;;2.53;;
64543;SDS011;50936;51.660;5.616;2023-07-31T12:31:49;5.07;;;2.50;;
64543;SDS011;50936;51.660;5.616;2023-07-31T12:34:16;4.75;;;2.35;;
64543;SDS011;50936;51.660;5.616;2023-07-31T12:36:47;4.97;;;2.28;;
64543;SDS011;50936;51.660;5.616;2023-07-31T12:39:17;4.22;;;2.35;;
64543;SDS011;50936;51.660;5.616;2023-07-31T12:41:44;4.00;;;2.38;;
64543;SDS011;50936;51.660;5.616;2023-07-31T12:44:11;7.85;;;2.95;;
64543;SDS011;50936;51.660;5.616;2023-07-31T12:46:38;5.25;;;2.83;;
64543;SDS011;50936;51.660;5.616;2023-07-31T12:49:05;5.30;;;2.47;;
64543;SDS011;50936;51.660;5.616;2023-07-31T12:51:32;5.15;;;2.58;;
64543;SDS011;50936;51.660;5.616;2023-07-31T12:53:59;4.80;;;2.33;;
64543;SDS011;50936;51.660;5.616;2023-07-31T12:56:26;4.30;;;2.38;;
64543;SDS011;50936;51.660;5.616;2023-07-31T12:58:53;5.82;;;2.55;;
64543;SDS011;50936;51.660;5.616;2023-07-31T13:01:20;4.60;;;2.55;;
64543;SDS011;50936;51.660;5.616;2023-07-31T13:03:47;4.55;;;2.67;;
64543;SDS011;50936;51.660;5.616;2023-07-31T13:06:14;4.85;;;2.25;;
64543;SDS011;50936;51.660;5.616;2023-07-31T13:08:41;6.82;;;2.53;;
64543;SDS011;50936;51.660;5.616;2023-07-31T13:11:08;5.22;;;2.80;;
64543;SDS011;50936;51.660;5.616;2023-07-31T13:13:35;5.03;;;2.50;;
64543;SDS011;50936;51.660;5.616;2023-07-31T13:16:02;7.38;;;2.50;;
64543;SDS011;50936;51.660;5.616;2023-07-31T13:18:29;5.88;;;2.53;;
64543;SDS011;50936;51.660;5.616;2023-07-31T13:20:56;5.35;;;2.40;;
64543;SDS011;50936;51.660;5.616;2023-07-31T13:23:23;5.28;;;2.60;;
64543;SDS011;50936;51.660;5.616;2023-07-31T13:25:50;5.80;;;2.50;;
64543;SDS011;50936;51.660;5.616;2023-07-31T13:28:17;5.97;;;2.72;;
64543;SDS011;50936;51.660;5.616;2023-07-31T13:30:44;5.32;;;2.83;;
64543;SDS011;50936;51.660;5.616;2023-07-31T13:33:10;6.45;;;2.83;;
64543;SDS011;50936;51.660;5.616;2023-07-31T13:35:55;4.85;;;2.40;;
64543;SDS011;50936;51.660;5.616;2023-07-31T13:38:22;4.68;;;2.42;;
64543;SDS011;50936;51.660;5.616;2023-07-31T13:40:49;4.32;;;2.42;;
64543;SDS011;50936;51.660;5.616;2023-07-31T13:43:15;4.57;;;2.42;;
64543;SDS011;50936;51.660;5.616;2023-07-31T13:45:42;5.57;;;2.65;;
64543;SDS011;50936;51.660;5.616;2023-07-31T13:48:09;6.65;;;3.03;;
64543;SDS011;50936;51.660;5.616;2023-07-31T13:50:36;6.50;;;2.63;;
64543;SDS011;50936;51.660;5.616;2023-07-31T13:53:03;5.32;;;2.47;;
64543;SDS011;50936;51.660;5.616;2023-07-31T13:55:30;4.38;;;2.45;;
64543;SDS011;50936;51.660;5.616;2023-07-31T13:57:57;5.35;;;2.53;;
64543;SDS011;50936;51.660;5.616;2023-07-31T14:00:24;7.10;;;2.80;;
64543;SDS011;50936;51.660;5.616;2023-07-31T14:02:51;5.78;;;2.88;;
64543;SDS011;50936;51.660;5.616;2023-07-31T14:05:18;6.53;;;2.80;;
64543;SDS011;50936;51.660;5.616;2023-07-31T14:07:45;6.55;;;3.00;;
64543;SDS011;50936;51.660;5.616;2023-07-31T14:10:12;5.32;;;2.53;;
64543;SDS011;50936;51.660;5.616;2023-07-31T14:12:39;7.45;;;2.78;;
64543;SDS011;50936;51.660;5.616;2023-07-31T14:15:09;5.57;;;2.83;;
64543;SDS011;50936;51.660;5.616;2023-07-31T14:17:37;5.85;;;2.60;;
64543;SDS011;50936;51.660;5.616;2023-07-31T14:20:04;5.30;;;2.97;;
64543;SDS011;50936;51.660;5.616;2023-07-31T14:22:33;6.03;;;2.60;;
64543;SDS011;50936;51.660;5.616;2023-07-31T14:25:01;6.28;;;3.08;;
64543;SDS011;50936;51.660;5.616;2023-07-31T14:27:28;6.50;;;2.90;;
64543;SDS011;50936;51.660;5.616;2023-07-31T14:29:55;5.63;;;2.53;;
64543;SDS011;50936;51.660;5.616;2023-07-31T14:32:22;5.75;;;3.05;;
64543;SDS011;50936;51.660;5.616;2023-07-31T14:34:52;9.15;;;2.90;;
64543;SDS011;50936;51.660;5.616;2023-07-31T14:37:19;6.75;;;3.13;;
64543;SDS011;50936;51.660;5.616;2023-07-31T14:39:46;6.55;;;2.67;;
64543;SDS011;50936;51.660;5.616;2023-07-31T14:42:13;5.15;;;2.88;;
64543;SDS011;50936;51.660;5.616;2023-07-31T14:44:40;6.25;;;2.92;;
64543;SDS011;50936;51.660;5.616;2023-07-31T14:47:07;6.40;;;3.20;;
64543;SDS011;50936;51.660;5.616;2023-07-31T14:49:33;6.38;;;2.65;;
64543;SDS011;50936;51.660;5.616;2023-07-31T14:52:00;7.82;;;3.05;;
64543;SDS011;50936;51.660;5.616;2023-07-31T14:54:27;6.75;;;3.28;;
64543;SDS011;50936;51.660;5.616;2023-07-31T14:56:54;5.53;;;2.70;;
64543;SDS011;50936;51.660;5.616;2023-07-31T14:59:21;5.82;;;3.00;;
64543;SDS011;50936;51.660;5.616;2023-07-31T15:01:48;5.47;;;2.92;;
64543;SDS011;50936;51.660;5.616;2023-07-31T15:04:15;7.85;;;3.17;;
64543;SDS011;50936;51.660;5.616;2023-07-31T15:06:42;8.13;;;3.50;;
64543;SDS011;50936;51.660;5.616;2023-07-31T15:09:09;4.93;;;2.65;;
64543;SDS011;50936;51.660;5.616;2023-07-31T15:11:36;6.10;;;3.10;;